createdAt,value
2018-12-26T00:00:35.417Z,5.73
2018-12-26T00:03:06.318Z,5.13
2018-12-26T00:05:38.475Z,4.80
2018-12-26T00:08:09.399Z,4.50
2018-12-26T00:10:40.306Z,4.83
2018-12-26T00:13:49.816Z,5.00
2018-12-26T00:16:21.113Z,4.43
2018-12-26T00:18:51.987Z,5.00
2018-12-26T00:21:23.271Z,4.45
2018-12-26T00:23:54.383Z,4.97
2018-12-26T00:26:25.576Z,4.37
2018-12-26T00:28:56.460Z,4.60
2018-12-26T00:31:27.330Z,3.97
2018-12-26T00:34:16.981Z,4.40
2018-12-26T00:36:58.924Z,3.55
2018-12-26T00:42:06.553Z,3.93
2018-12-26T00:44:38.487Z,4.57
2018-12-26T00:47:10.058Z,4.30
2018-12-26T00:49:42.628Z,3.63
2018-12-26T00:52:14.060Z,4.60
2018-12-26T01:02:20.895Z,3.80
2018-12-26T01:04:52.129Z,3.67
2018-12-26T01:07:23.100Z,3.77
2018-12-26T01:09:54.039Z,4.63
2018-12-26T01:12:25.023Z,3.93
2018-12-26T01:14:56.077Z,3.60
2018-12-26T01:17:27.396Z,4.10
2018-12-26T01:19:58.371Z,4.30
2018-12-26T01:22:29.652Z,4.00
2018-12-26T01:25:00.599Z,4.10
2018-12-26T01:27:31.480Z,4.10
2018-12-26T01:30:02.412Z,3.83
2018-12-26T01:32:33.724Z,4.40
2018-12-26T01:35:04.609Z,4.07
2018-12-26T01:37:35.680Z,4.00
2018-12-26T01:40:06.599Z,4.37
2018-12-26T01:42:37.457Z,3.97
2018-12-26T01:45:08.704Z,3.87
2018-12-26T01:47:39.626Z,4.00
2018-12-26T01:50:10.572Z,4.10
2018-12-26T01:52:41.445Z,4.07
2018-12-26T01:55:12.340Z,3.73
2018-12-26T01:58:01.876Z,3.93
2018-12-26T02:00:33.152Z,3.80
2018-12-26T02:03:04.248Z,4.17
2018-12-26T02:05:35.231Z,3.93
2018-12-26T02:08:06.143Z,3.77
2018-12-26T02:10:37.363Z,3.80
2018-12-26T02:13:08.234Z,3.90
2018-12-26T02:15:39.516Z,3.90
2018-12-26T02:18:10.422Z,4.30
2018-12-26T02:20:41.380Z,4.03
2018-12-26T02:23:12.309Z,4.00
2018-12-26T02:25:43.345Z,3.80
2018-12-26T02:30:50.465Z,3.13
2018-12-26T02:33:21.341Z,4.00
2018-12-26T02:35:52.344Z,3.52
2018-12-26T02:38:23.181Z,3.57
2018-12-26T02:41:13.021Z,4.03
2018-12-26T02:43:44.414Z,3.47
2018-12-26T02:46:16.476Z,3.70
2018-12-26T02:48:47.429Z,4.07
2018-12-26T02:51:18.333Z,3.83
2018-12-26T02:53:49.406Z,4.00
2018-12-26T02:56:21.325Z,3.40
2018-12-26T02:58:52.211Z,3.60
2018-12-26T03:01:23.181Z,3.60
2018-12-26T03:03:54.045Z,4.20
2018-12-26T03:06:25.462Z,4.07
2018-12-26T03:08:56.329Z,4.30
2018-12-26T03:11:27.736Z,4.50
2018-12-26T03:13:58.996Z,4.26
2018-12-26T03:16:30.138Z,4.03
2018-12-26T03:19:01.358Z,4.30
2018-12-26T03:21:32.237Z,4.80
2018-12-26T03:24:03.127Z,4.67
2018-12-26T03:26:34.398Z,4.70
2018-12-26T03:29:05.261Z,4.60
2018-12-26T03:31:36.292Z,4.43
2018-12-26T03:34:07.397Z,4.40
2018-12-26T03:36:56.951Z,4.87
2018-12-26T03:39:28.302Z,4.28
2018-12-26T03:45:14.153Z,4.73
2018-12-26T03:47:48.270Z,4.83
2018-12-26T03:50:19.320Z,5.37
2018-12-26T03:52:50.272Z,4.80
2018-12-26T03:55:21.599Z,5.60
2018-12-26T03:57:52.614Z,5.20
2018-12-26T04:00:24.125Z,5.20
2018-12-26T04:02:55.139Z,5.13
2018-12-26T04:05:26.174Z,5.33
2018-12-26T04:07:57.031Z,5.53
2018-12-26T04:10:28.379Z,6.22
2018-12-26T04:12:59.357Z,5.50
2018-12-26T04:15:30.345Z,5.70
2018-12-26T04:18:01.766Z,5.77
2018-12-26T04:20:32.979Z,5.80
2018-12-26T04:23:04.331Z,6.03
2018-12-26T04:25:35.473Z,6.20
2018-12-26T04:28:06.382Z,6.13
2018-12-26T04:30:37.321Z,5.80
2018-12-26T04:33:26.843Z,5.93
2018-12-26T04:36:08.714Z,5.90
2018-12-26T04:38:40.014Z,5.83
2018-12-26T04:41:11.059Z,5.80
2018-12-26T04:43:42.202Z,6.33
2018-12-26T04:46:13.435Z,5.93
2018-12-26T04:48:44.357Z,6.27
2018-12-26T04:51:15.221Z,6.37
2018-12-26T04:53:46.469Z,5.23
2018-12-26T04:56:36.092Z,6.20
2018-12-26T04:59:08.514Z,5.70
2018-12-26T05:01:39.443Z,6.37
2018-12-26T05:04:29.120Z,6.47
2018-12-26T05:07:00.373Z,6.57
2018-12-26T05:09:31.714Z,6.40
2018-12-26T05:12:05.660Z,6.42
2018-12-26T05:14:36.532Z,6.03
2018-12-26T05:17:07.575Z,5.87
2018-12-26T05:19:38.452Z,6.30
2018-12-26T05:22:09.403Z,6.13
2018-12-26T05:24:40.309Z,6.30
2018-12-26T05:27:11.312Z,6.80
2018-12-26T05:29:42.334Z,6.07
2018-12-26T05:32:13.309Z,7.37
2018-12-26T05:34:45.334Z,6.03
2018-12-26T05:37:16.298Z,6.67
2018-12-26T05:39:47.164Z,6.63
2018-12-26T05:42:18.174Z,6.33
2018-12-26T05:44:49.351Z,7.30
2018-12-26T05:47:20.275Z,6.50
2018-12-26T05:49:51.276Z,6.50
2018-12-26T05:52:22.264Z,6.80
2018-12-26T05:55:12.105Z,6.83
2018-12-26T05:57:43.316Z,6.87
2018-12-26T06:00:14.185Z,7.27
2018-12-26T06:02:45.292Z,7.97
2018-12-26T06:05:16.180Z,7.65
2018-12-26T06:07:47.107Z,7.27
2018-12-26T06:10:18.081Z,7.73
2018-12-26T06:12:49.045Z,7.97
2018-12-26T06:15:19.992Z,7.67
2018-12-26T06:17:51.301Z,8.50
2018-12-26T06:20:22.186Z,7.90
2018-12-26T06:22:53.428Z,8.73
2018-12-26T06:25:24.269Z,8.80
2018-12-26T06:27:55.215Z,7.83
2018-12-26T06:30:26.133Z,9.07
2018-12-26T06:32:57.100Z,8.07
2018-12-26T06:35:28.214Z,8.87
2018-12-26T06:37:59.052Z,9.07
2018-12-26T06:40:48.766Z,8.93
2018-12-26T06:43:20.008Z,9.20
2018-12-26T06:48:46.487Z,9.27
2018-12-26T06:51:17.680Z,9.23
2018-12-26T06:53:48.898Z,8.63
2018-12-26T06:56:20.023Z,8.83
2018-12-26T06:58:51.257Z,9.40
2018-12-26T07:01:22.111Z,9.20
2018-12-26T07:03:53.669Z,10.20
2018-12-26T07:06:43.654Z,8.55
2018-12-26T07:11:51.080Z,9.73
2018-12-26T07:14:22.251Z,8.90
2018-12-26T07:16:53.429Z,9.00
2018-12-26T07:19:24.366Z,9.10
2018-12-26T07:21:55.348Z,9.07
2018-12-26T07:24:26.523Z,8.90
2018-12-26T07:26:57.360Z,8.97
2018-12-26T07:29:28.459Z,9.77
2018-12-26T07:31:59.402Z,9.43
2018-12-26T07:37:27.283Z,9.63
2018-12-26T07:40:16.873Z,9.47
2018-12-26T07:42:48.372Z,10.00
2018-12-26T07:45:19.356Z,9.77
2018-12-26T07:48:01.510Z,9.70
2018-12-26T07:50:32.409Z,9.67
2018-12-26T07:53:03.506Z,10.17
2018-12-26T07:55:34.359Z,9.27
2018-12-26T07:58:05.251Z,10.67
2018-12-26T08:00:36.214Z,10.33
2018-12-26T08:03:07.044Z,10.47
2018-12-26T08:05:38.362Z,10.83
2018-12-26T08:08:09.435Z,11.37
2018-12-26T08:10:40.405Z,10.60
2018-12-26T08:13:11.422Z,10.07
2018-12-26T08:15:42.305Z,11.13
2018-12-26T08:20:51.118Z,10.38
2018-12-26T08:26:17.222Z,10.75
2018-12-26T08:28:48.429Z,11.03
2018-12-26T08:31:19.686Z,11.00
2018-12-26T08:33:50.552Z,11.03
2018-12-26T08:36:21.938Z,11.03
2018-12-26T08:38:54.371Z,10.75
2018-12-26T08:41:25.417Z,11.43
2018-12-26T08:43:56.334Z,11.83
2018-12-26T08:46:27.234Z,11.67
2018-12-26T08:48:58.449Z,11.80
2018-12-26T08:51:29.348Z,12.30
2018-12-26T08:54:00.438Z,11.63
2018-12-26T08:56:31.420Z,11.97
2018-12-26T08:59:02.323Z,10.77
2018-12-26T09:01:33.372Z,12.07
2018-12-26T09:04:04.275Z,12.17
2018-12-26T09:06:35.203Z,12.07
2018-12-26T09:09:44.850Z,12.00
2018-12-26T09:12:16.110Z,11.77
2018-12-26T09:14:47.441Z,11.73
2018-12-26T09:17:18.496Z,12.80
2018-12-26T09:19:49.399Z,12.03
2018-12-26T09:22:20.406Z,12.70
2018-12-26T09:24:51.346Z,12.10
2018-12-26T09:27:22.448Z,11.23
2018-12-26T09:29:53.360Z,12.70
2018-12-26T09:32:24.256Z,12.30
2018-12-26T09:34:55.826Z,13.00
2018-12-26T09:37:27.010Z,12.75
2018-12-26T09:39:58.326Z,12.35
2018-12-26T09:42:29.352Z,13.37
2018-12-26T09:45:00.499Z,11.70
2018-12-26T09:47:32.466Z,11.93
2018-12-26T09:50:03.373Z,11.37
2018-12-26T09:55:11.156Z,11.30
2018-12-26T10:00:18.592Z,11.70
2018-12-26T10:02:49.479Z,11.23
2018-12-26T10:05:20.871Z,10.50
2018-12-26T10:07:52.073Z,11.10
2018-12-26T10:10:23.432Z,11.12
2018-12-26T10:15:51.347Z,10.77
2018-12-26T10:18:22.291Z,10.03
2018-12-26T10:20:53.384Z,10.63
2018-12-26T10:23:24.331Z,10.53
2018-12-26T10:25:55.399Z,10.53
2018-12-26T10:28:26.289Z,11.13
2018-12-26T10:30:57.332Z,11.30
2018-12-26T10:33:28.919Z,10.67
2018-12-26T10:38:37.472Z,12.28
2018-12-26T10:43:44.464Z,11.93
2018-12-26T10:46:15.484Z,11.80
2018-12-26T10:48:46.412Z,11.20
2018-12-26T10:51:17.388Z,11.73
2018-12-26T10:53:48.405Z,11.47
2018-12-26T10:56:19.325Z,12.00
2018-12-26T10:58:50.584Z,13.07
2018-12-26T11:01:22.061Z,12.23
2018-12-26T11:03:53.036Z,13.83
2018-12-26T11:06:24.125Z,13.30
2018-12-26T11:08:55.113Z,13.27
2018-12-26T11:14:02.592Z,13.60
2018-12-26T11:16:33.491Z,14.53
2018-12-26T11:19:04.542Z,13.90
2018-12-26T11:21:35.424Z,13.63
2018-12-26T11:26:44.495Z,14.78
2018-12-26T11:29:18.678Z,14.43
2018-12-26T11:31:48.618Z,14.70
2018-12-26T11:34:19.501Z,15.13
2018-12-26T11:39:47.270Z,13.53
2018-12-26T11:44:54.681Z,13.50
2018-12-26T11:47:44.326Z,12.87
2018-12-26T11:50:15.308Z,12.87
2018-12-26T11:52:46.312Z,14.13
2018-12-26T11:55:17.457Z,13.67
2018-12-26T11:57:48.524Z,13.60
2018-12-26T12:00:19.442Z,14.53
2018-12-26T12:02:50.589Z,12.70
2018-12-26T12:05:22.470Z,13.78
2018-12-26T12:07:53.360Z,13.60
2018-12-26T12:10:24.318Z,14.23
2018-12-26T12:12:55.206Z,13.73
2018-12-26T12:15:26.431Z,14.17
2018-12-26T12:17:57.435Z,13.23
2018-12-26T12:20:47.123Z,13.13
2018-12-26T12:23:18.118Z,13.63
2018-12-26T12:25:49.099Z,14.27
2018-12-26T12:28:20.328Z,13.57
2018-12-26T12:30:51.298Z,13.67
2018-12-26T12:33:22.443Z,13.10
2018-12-26T12:41:35.131Z,13.07
2018-12-26T12:44:06.533Z,13.27
2018-12-26T12:46:37.419Z,12.60
2018-12-26T12:49:08.361Z,13.30
2018-12-26T12:51:39.316Z,11.67
2018-12-26T12:54:10.313Z,13.33
2018-12-26T12:56:41.397Z,11.77
2018-12-26T12:59:12.337Z,12.73
2018-12-26T13:01:43.480Z,11.83
2018-12-26T13:04:52.895Z,13.37
2018-12-26T13:07:24.655Z,11.75
2018-12-26T13:09:55.583Z,12.50
2018-12-26T13:12:26.467Z,12.07
2018-12-26T13:14:57.441Z,11.97
2018-12-26T13:17:28.376Z,11.10
2018-12-26T13:22:54.747Z,11.97
2018-12-26T13:25:26.631Z,12.43
2018-12-26T13:27:57.519Z,12.00
2018-12-26T13:30:28.412Z,12.60
2018-12-26T13:32:59.375Z,11.67
2018-12-26T13:38:21.658Z,12.10
2018-12-26T13:40:52.837Z,12.00
2018-12-26T13:43:25.472Z,10.95
2018-12-26T13:46:14.989Z,11.87
2018-12-26T13:48:46.026Z,11.30
2018-12-26T13:51:17.409Z,11.57
2018-12-26T13:53:48.337Z,11.53
2018-12-26T13:56:19.257Z,12.43
2018-12-26T13:58:50.213Z,12.00
2018-12-26T14:01:21.072Z,13.00
2018-12-26T14:06:29.180Z,12.60
2018-12-26T14:09:00.665Z,13.03
2018-12-26T14:11:50.229Z,13.37
2018-12-26T14:14:22.482Z,12.65
2018-12-26T14:16:53.376Z,13.03
2018-12-26T14:19:24.244Z,12.70
2018-12-26T14:21:55.265Z,13.63
2018-12-26T14:24:26.945Z,13.00
2018-12-26T14:29:35.504Z,13.83
2018-12-26T14:32:06.478Z,13.43
2018-12-26T14:34:37.558Z,14.27
2018-12-26T14:37:09.127Z,14.40
2018-12-26T14:39:40.379Z,14.40
2018-12-26T14:42:11.651Z,14.13
2018-12-26T14:44:42.767Z,13.27
2018-12-26T14:47:13.997Z,14.30
2018-12-26T14:49:45.085Z,14.50
2018-12-26T14:52:16.203Z,14.07
2018-12-26T14:54:47.305Z,13.63
2018-12-26T14:57:18.322Z,12.97
2018-12-26T14:59:49.349Z,13.60
2018-12-26T15:02:21.573Z,13.32
2018-12-26T15:04:52.641Z,13.67
2018-12-26T15:07:23.623Z,12.63
2018-12-26T15:09:54.586Z,13.03
2018-12-26T15:13:05.010Z,13.77
2018-12-26T15:15:36.902Z,13.17
2018-12-26T15:18:08.177Z,12.18
2018-12-26T15:20:39.168Z,13.03
2018-12-26T15:23:10.447Z,12.80
2018-12-26T15:25:41.967Z,12.70
2018-12-26T15:28:13.115Z,13.22
2018-12-26T15:30:44.275Z,12.10
2018-12-26T15:33:15.155Z,12.83
2018-12-26T15:35:46.562Z,12.50
2018-12-26T15:38:17.524Z,12.90
2018-12-26T15:40:48.627Z,11.77
2018-12-26T15:43:19.561Z,12.13
2018-12-26T15:45:50.505Z,13.17
2018-12-26T15:48:21.690Z,11.28
2018-12-26T15:50:52.549Z,12.20
2018-12-26T15:53:23.631Z,11.63
2018-12-26T15:55:54.612Z,11.93
2018-12-26T15:58:26.009Z,10.87
2018-12-26T16:00:57.312Z,10.93
2018-12-26T16:03:28.350Z,11.37
2018-12-26T16:05:59.400Z,10.97
2018-12-26T16:08:30.471Z,12.03
2018-12-26T16:11:01.536Z,11.43
2018-12-26T16:13:32.756Z,12.70
2018-12-26T16:16:05.086Z,11.75
2018-12-26T16:18:36.286Z,11.73
2018-12-26T16:21:07.396Z,11.97
2018-12-26T16:23:38.390Z,12.03
2018-12-26T16:26:09.491Z,12.53
2018-12-26T16:28:40.521Z,12.10
2018-12-26T16:31:11.412Z,11.30
2018-12-26T16:33:42.742Z,12.03
2018-12-26T16:36:14.021Z,12.33
2018-12-26T16:38:45.322Z,11.60
2018-12-26T16:41:16.291Z,13.23
2018-12-26T16:43:47.257Z,11.80
2018-12-26T16:46:18.314Z,11.07
2018-12-26T16:48:49.505Z,11.50
2018-12-26T16:51:20.514Z,10.90
2018-12-26T16:54:10.131Z,11.43
2018-12-26T16:56:41.268Z,11.37
2018-12-26T16:59:12.419Z,10.60
2018-12-26T17:01:43.771Z,11.63
2018-12-26T17:04:15.114Z,11.23
2018-12-26T17:06:48.590Z,10.40
2018-12-26T17:11:50.544Z,10.73
2018-12-26T17:14:22.475Z,10.55
2018-12-26T17:16:53.665Z,9.80
2018-12-26T17:19:24.933Z,10.03
2018-12-26T17:21:55.968Z,10.83
2018-12-26T17:24:27.347Z,10.50
2018-12-26T17:26:58.651Z,10.77
2018-12-26T17:29:29.888Z,10.10
2018-12-26T17:32:03.071Z,10.63
2018-12-26T17:34:53.351Z,10.33
2018-12-26T17:37:24.655Z,9.60
2018-12-26T17:39:55.689Z,9.10
2018-12-26T17:42:26.827Z,10.30
2018-12-26T17:44:58.265Z,9.45
2018-12-26T17:47:29.421Z,10.40
2018-12-26T17:50:38.820Z,9.43
2018-12-26T17:53:12.423Z,9.88
2018-12-26T17:58:44.966Z,9.10
2018-12-26T18:07:09.416Z,10.68
2018-12-26T18:12:30.648Z,10.20
2018-12-26T18:15:01.784Z,9.20
2018-12-26T18:17:33.291Z,9.93
2018-12-26T18:20:04.524Z,9.97
2018-12-26T18:22:35.522Z,9.13
2018-12-26T18:27:44.204Z,9.35
2018-12-26T18:32:51.233Z,10.20
2018-12-26T18:36:00.731Z,10.33
2018-12-26T18:38:31.763Z,10.03
2018-12-26T18:43:59.739Z,9.67
2018-12-26T18:46:30.918Z,9.43
2018-12-26T18:49:02.261Z,9.58
2018-12-26T18:51:33.337Z,9.33
2018-12-26T18:54:04.401Z,9.07
2018-12-26T18:56:38.408Z,9.55
2018-12-26T18:59:09.576Z,10.17
2018-12-26T19:04:16.289Z,15.93
2018-12-26T19:06:47.374Z,12.60
2018-12-26T19:09:18.657Z,11.60
2018-12-26T19:11:49.694Z,9.60
2018-12-26T19:14:40.411Z,11.83
2018-12-26T19:19:49.717Z,9.87
2018-12-26T19:22:39.697Z,10.55
2018-12-26T19:25:11.529Z,8.63
2018-12-26T19:40:01.078Z,9.50
2018-12-26T19:42:37.368Z,10.17
2018-12-26T19:45:06.622Z,9.47
2018-12-26T19:50:52.942Z,9.30
2018-12-26T19:53:24.619Z,9.27
2018-12-26T19:55:55.751Z,8.93
2018-12-26T19:58:29.192Z,9.00
2018-12-26T20:01:00.371Z,9.20
2018-12-26T20:03:31.917Z,9.10
2018-12-26T20:06:03.734Z,8.85
2018-12-26T20:08:35.247Z,9.33
2018-12-26T20:11:10.100Z,8.80
2018-12-26T20:14:19.998Z,9.50
2018-12-26T20:16:51.393Z,9.30
2018-12-26T20:19:22.650Z,9.03
2018-12-26T20:22:12.948Z,10.08
2018-12-26T20:24:44.199Z,9.97
2018-12-26T20:30:02.389Z,10.03
2018-12-26T20:32:33.537Z,10.20
2018-12-26T20:35:04.630Z,9.53
2018-12-26T20:37:36.297Z,9.60
2018-12-26T20:40:08.642Z,10.37
2018-12-26T20:42:39.616Z,10.27
2018-12-26T20:45:11.268Z,10.53
2018-12-26T20:48:22.156Z,10.27
2018-12-26T20:50:53.762Z,9.27
2018-12-26T20:53:25.175Z,10.23
2018-12-26T20:55:56.566Z,12.63
2018-12-26T20:58:27.620Z,10.03
2018-12-26T21:00:58.682Z,10.73
2018-12-26T21:03:29.857Z,11.30
2018-12-26T21:06:01.342Z,12.83
2018-12-26T21:08:32.332Z,10.30
2018-12-26T21:11:41.993Z,10.03
2018-12-26T21:14:15.382Z,10.70
2018-12-26T21:19:52.231Z,10.73
2018-12-26T21:22:23.218Z,9.50
2018-12-26T21:24:54.323Z,10.80
2018-12-26T21:27:25.204Z,10.00
2018-12-26T21:29:56.240Z,10.63
2018-12-26T21:32:27.369Z,10.57
2018-12-26T21:34:58.524Z,10.10
2018-12-26T21:37:29.476Z,9.77
2018-12-26T21:40:00.346Z,10.10
2018-12-26T21:42:31.302Z,10.67
2018-12-26T21:45:02.192Z,10.57
2018-12-26T21:47:33.482Z,10.13
2018-12-26T21:50:04.369Z,9.50
2018-12-26T21:52:35.340Z,9.77
2018-12-26T21:55:06.302Z,9.40
2018-12-26T21:57:38.365Z,9.50
2018-12-26T22:00:29.646Z,9.87
2018-12-26T22:03:00.879Z,10.20
2018-12-26T22:05:32.823Z,9.60
2018-12-26T22:08:04.397Z,9.97
2018-12-26T22:10:35.514Z,9.63
2018-12-26T22:16:24.524Z,10.27
2018-12-26T22:27:31.135Z,11.10
2018-12-26T22:32:39.406Z,12.13
2018-12-26T22:35:10.943Z,10.80
2018-12-26T22:38:01.182Z,9.80
2018-12-26T22:40:32.993Z,11.43
2018-12-26T22:43:07.799Z,10.58
2018-12-26T22:45:44.098Z,10.23
2018-12-26T22:48:15.314Z,10.00
2018-12-26T22:50:46.518Z,9.63
2018-12-26T22:53:17.710Z,10.77
2018-12-26T23:01:46.553Z,11.50
2018-12-26T23:04:56.561Z,10.93
2018-12-26T23:07:28.159Z,11.20
2018-12-26T23:09:59.943Z,11.60
2018-12-26T23:12:32.857Z,11.87
2018-12-26T23:15:22.614Z,11.30
2018-12-26T23:17:55.658Z,11.97
2018-12-26T23:25:56.442Z,11.53
2018-12-26T23:31:05.080Z,12.18
2018-12-26T23:33:37.696Z,11.63
2018-12-26T23:45:04.607Z,12.23
2018-12-26T23:48:15.108Z,13.15
2018-12-26T23:50:46.347Z,11.83
2018-12-26T23:53:17.336Z,13.10
2018-12-26T23:55:48.279Z,12.83
2018-12-26T23:58:19.163Z,13.63
